createdAt,value
2023-04-24T00:00:50.106Z,15.68
2023-04-24T00:06:03.583Z,15.59
2023-04-24T00:11:06.810Z,15.50
2023-04-24T00:16:10.349Z,15.36
2023-04-24T00:21:13.441Z,15.29
2023-04-24T00:26:16.585Z,15.21
2023-04-24T00:31:20.314Z,15.14
2023-04-24T00:36:23.460Z,15.04
2023-04-24T00:41:26.987Z,14.97
2023-04-24T00:46:30.221Z,14.84
2023-04-24T00:51:35.616Z,14.73
2023-04-24T00:56:38.774Z,14.67
2023-04-24T01:01:43.256Z,14.62
2023-04-24T01:06:46.769Z,14.53
2023-04-24T01:11:51.114Z,14.42
2023-04-24T01:16:54.212Z,14.35
2023-04-24T01:22:00.119Z,14.27
2023-04-24T01:27:03.505Z,14.17
2023-04-24T01:32:06.998Z,14.06
2023-04-24T01:37:10.051Z,13.96
2023-04-24T01:42:14.281Z,13.88
2023-04-24T01:47:17.675Z,13.79
2023-04-24T01:52:20.921Z,13.71
2023-04-24T01:57:25.281Z,13.65
2023-04-24T02:02:31.159Z,13.55
2023-04-24T02:07:34.764Z,13.45
2023-04-24T02:12:38.132Z,13.42
2023-04-24T02:17:41.371Z,13.40
2023-04-24T02:22:44.444Z,13.31
2023-04-24T02:27:47.544Z,13.26
2023-04-24T02:32:50.893Z,13.23
2023-04-24T02:37:54.823Z,13.17
2023-04-24T02:43:00.609Z,13.12
2023-04-24T02:48:04.419Z,13.05
2023-04-24T02:53:07.785Z,12.99
2023-04-24T02:58:11.994Z,12.92
2023-04-24T03:03:18.154Z,12.78
2023-04-24T03:08:21.341Z,12.70
2023-04-24T03:13:25.333Z,12.67
2023-04-24T03:18:31.300Z,12.61
2023-04-24T03:25:29.673Z,12.51
2023-04-24T03:30:32.995Z,12.46
2023-04-24T03:35:37.554Z,12.42
2023-04-24T03:40:44.628Z,12.40
2023-04-24T03:46:10.571Z,12.33
2023-04-24T03:51:17.565Z,12.26
2023-04-24T03:56:23.808Z,12.23
2023-04-24T04:01:27.054Z,12.21
2023-04-24T04:06:40.192Z,12.23
2023-04-24T04:11:43.435Z,12.18
2023-04-24T04:16:46.726Z,12.14
2023-04-24T04:21:55.149Z,12.12
2023-04-24T04:27:04.562Z,12.15
2023-04-24T04:32:13.883Z,12.15
2023-04-24T04:37:17.538Z,12.15
2023-04-24T04:42:30.290Z,12.21
2023-04-24T04:47:33.689Z,12.27
2023-04-24T04:52:38.142Z,12.37
2023-04-24T04:58:02.200Z,12.51
2023-04-24T05:03:19.869Z,12.62
2023-04-24T05:08:28.009Z,12.78
2023-04-24T05:13:40.395Z,12.93
2023-04-24T05:18:49.791Z,13.08
2023-04-24T05:23:55.179Z,13.30
2023-04-24T05:29:20.360Z,13.55
2023-04-24T05:34:24.052Z,13.81
2023-04-24T05:39:31.298Z,14.07
2023-04-24T05:44:36.289Z,14.29
2023-04-24T05:49:39.263Z,14.44
2023-04-24T05:54:42.393Z,14.62
2023-04-24T05:59:46.622Z,14.79
2023-04-24T06:04:51.120Z,14.95
2023-04-24T06:09:54.576Z,15.11
2023-04-24T06:14:58.685Z,15.27
2023-04-24T06:20:26.657Z,15.43
2023-04-24T06:25:29.797Z,15.58
2023-04-24T06:30:33.476Z,15.72
2023-04-24T06:35:37.744Z,15.89
2023-04-24T06:40:41.484Z,16.08
2023-04-24T06:45:45.206Z,16.28
2023-04-24T06:50:51.568Z,16.42
2023-04-24T06:55:54.582Z,16.61
2023-04-24T07:00:57.571Z,16.79
2023-04-24T07:06:00.660Z,16.99
2023-04-24T07:11:04.215Z,17.33
2023-04-24T07:16:07.371Z,17.86
2023-04-24T07:21:10.687Z,18.26
2023-04-24T07:26:15.912Z,18.57
2023-04-24T07:31:19.034Z,18.65
2023-04-24T07:36:22.189Z,18.69
2023-04-24T07:41:25.702Z,18.82
2023-04-24T07:46:31.180Z,18.77
2023-04-24T07:51:39.263Z,18.83
2023-04-24T07:56:44.021Z,19.03
2023-04-24T08:01:47.117Z,19.15
2023-04-24T08:06:50.140Z,19.29
2023-04-24T08:11:54.363Z,19.36
2023-04-24T08:16:57.582Z,19.45
2023-04-24T08:22:00.539Z,19.55
2023-04-24T08:27:03.914Z,19.64
2023-04-24T08:32:08.031Z,19.73
2023-04-24T08:37:11.273Z,19.83
2023-04-24T08:42:15.943Z,19.97
2023-04-24T08:47:20.492Z,20.06
2023-04-24T08:52:24.182Z,20.24
2023-04-24T08:57:27.970Z,20.40
2023-04-24T09:02:32.211Z,20.56
2023-04-24T09:07:47.398Z,20.73
2023-04-24T09:12:52.128Z,20.85
2023-04-24T09:17:55.170Z,20.93
2023-04-24T09:22:59.872Z,20.99
2023-04-24T09:28:04.794Z,21.08
2023-04-24T09:33:14.863Z,21.19
2023-04-24T09:38:18.060Z,21.33
2023-04-24T09:43:21.271Z,21.44
2023-04-24T09:48:38.290Z,21.57
2023-04-24T09:53:46.471Z,21.63
2023-04-24T09:58:49.840Z,21.67
2023-04-24T10:03:52.962Z,21.85
2023-04-24T10:08:57.493Z,22.11
2023-04-24T10:14:00.761Z,22.34
2023-04-24T10:19:04.840Z,22.61
2023-04-24T10:24:08.688Z,22.68
2023-04-24T10:29:14.213Z,22.81
2023-04-24T10:34:26.203Z,22.84
2023-04-24T10:39:30.324Z,23.06
2023-04-24T10:44:38.179Z,23.22
2023-04-24T10:49:41.533Z,23.30
2023-04-24T10:54:48.503Z,22.97
2023-04-24T11:00:13.785Z,22.74
2023-04-24T11:05:19.655Z,22.67
2023-04-24T11:10:29.005Z,22.81
2023-04-24T11:15:32.090Z,22.85
2023-04-24T11:20:35.432Z,22.68
2023-04-24T11:25:38.630Z,22.72
2023-04-24T11:30:41.735Z,22.75
2023-04-24T11:35:45.028Z,22.90
2023-04-24T11:40:50.527Z,23.07
2023-04-24T11:45:54.067Z,23.21
2023-04-24T11:50:57.812Z,23.64
2023-04-24T11:56:05.094Z,23.71
2023-04-24T12:01:08.190Z,23.54
2023-04-24T12:06:13.202Z,23.72
2023-04-24T12:11:17.877Z,23.85
2023-04-24T12:16:20.967Z,23.73
2023-04-24T12:21:26.185Z,23.41
2023-04-24T12:26:30.195Z,23.21
2023-04-24T12:31:33.855Z,23.10
2023-04-24T12:36:37.152Z,22.89
2023-04-24T12:41:52.140Z,22.79
2023-04-24T12:46:55.147Z,22.72
2023-04-24T12:51:58.187Z,22.68
2023-04-24T12:57:01.435Z,22.56
2023-04-24T13:02:04.623Z,22.47
2023-04-24T13:07:07.700Z,22.28
2023-04-24T13:12:12.075Z,21.95
2023-04-24T13:17:15.412Z,21.58
2023-04-24T13:25:36.033Z,21.01
2023-04-24T13:30:39.570Z,20.69
2023-04-24T13:35:42.687Z,20.47
2023-04-24T13:40:45.861Z,20.28
2023-04-24T13:45:49.109Z,20.16
2023-04-24T13:50:52.308Z,20.06
2023-04-24T13:55:55.846Z,19.98
2023-04-24T14:00:59.127Z,19.91
2023-04-24T14:06:02.500Z,19.84
2023-04-24T14:11:05.758Z,19.74
2023-04-24T14:16:09.571Z,19.65
2023-04-24T14:21:12.785Z,19.61
2023-04-24T14:26:16.193Z,19.56
2023-04-24T14:31:20.184Z,19.45
2023-04-24T14:36:23.560Z,19.37
2023-04-24T14:41:26.542Z,19.30
2023-04-24T14:46:31.546Z,19.24
2023-04-24T14:51:34.654Z,19.20
2023-04-24T14:56:37.839Z,19.19
2023-04-24T15:01:40.985Z,19.15
2023-04-24T15:06:44.032Z,19.03
2023-04-24T15:11:47.617Z,18.95
2023-04-24T15:16:51.598Z,18.89
2023-04-24T15:21:55.491Z,18.84
2023-04-24T15:27:00.917Z,18.83
2023-04-24T15:32:04.510Z,18.82
2023-04-24T15:37:07.801Z,18.81
2023-04-24T15:42:10.860Z,18.80
2023-04-24T15:47:15.237Z,18.82
2023-04-24T15:52:18.306Z,18.85
2023-04-24T15:57:21.511Z,18.84
2023-04-24T16:02:24.761Z,18.78
2023-04-24T16:07:28.135Z,18.68
2023-04-24T16:12:31.309Z,18.65
2023-04-24T16:17:34.472Z,18.53
2023-04-24T16:22:39.869Z,18.41
2023-04-24T16:27:43.601Z,18.32
2023-04-24T16:32:49.217Z,18.21
2023-04-24T16:37:52.295Z,18.10
2023-04-24T16:42:55.720Z,18.02
2023-04-24T16:47:59.015Z,17.94
2023-04-24T17:25:25.897Z,17.48
2023-04-24T17:30:29.258Z,17.43
2023-04-24T17:35:32.715Z,17.38
2023-04-24T17:40:38.712Z,17.34
2023-04-24T17:45:42.670Z,17.33
2023-04-24T17:50:46.359Z,17.28
2023-04-24T17:55:49.848Z,17.20
2023-04-24T18:00:52.966Z,17.18
2023-04-24T18:05:56.155Z,17.12
2023-04-24T18:10:59.223Z,17.05
2023-04-24T20:25:37.675Z,16.17
2023-04-24T20:30:41.488Z,16.09
2023-04-24T20:35:44.770Z,16.06
2023-04-24T20:45:56.009Z,16.05
2023-04-24T20:50:59.536Z,16.04
2023-04-24T20:56:03.792Z,15.98
2023-04-24T21:01:07.369Z,15.98
2023-04-24T21:06:11.424Z,16.01
2023-04-24T21:11:15.043Z,16.01
2023-04-24T21:16:18.484Z,16.01
2023-04-24T21:21:22.592Z,16.00
2023-04-24T21:26:26.622Z,15.98
2023-04-24T21:31:31.230Z,15.90
2023-04-24T21:36:36.637Z,15.90
2023-04-24T21:41:40.002Z,15.92
2023-04-24T21:46:44.638Z,15.87
2023-04-24T21:51:47.972Z,15.74
2023-04-24T21:56:51.276Z,15.71
2023-04-24T22:01:54.611Z,15.71
2023-04-24T22:06:58.239Z,15.70
2023-04-24T22:12:02.040Z,15.65
2023-04-24T22:17:05.282Z,15.63
2023-04-24T22:22:08.644Z,15.56
2023-04-24T22:27:11.951Z,15.52
2023-04-24T22:32:15.262Z,15.44
2023-04-24T22:37:18.454Z,15.33
2023-04-24T22:42:21.649Z,15.23
2023-04-24T22:47:25.005Z,15.15
2023-04-24T22:52:29.084Z,15.13
2023-04-24T22:57:32.480Z,15.17
2023-04-24T23:02:35.838Z,15.17
2023-04-24T23:07:39.461Z,15.11
2023-04-24T23:12:43.914Z,15.08
2023-04-24T23:17:47.264Z,15.06
2023-04-24T23:22:51.099Z,14.99
2023-04-24T23:27:54.706Z,14.91
2023-04-24T23:32:58.128Z,14.87
2023-04-24T23:38:01.962Z,14.87
2023-04-24T23:43:07.879Z,14.86
2023-04-24T23:48:11.846Z,14.85
2023-04-24T23:53:14.960Z,14.84
2023-04-24T23:58:18.116Z,14.82
